sensor_id;sensor_type;location;lat;lon;timestamp;pressure;altitude;pressure_sealevel;temperature;humidity
18527;BME280;9393;42.158;24.748;2022-10-20T00:00:41;99804.66;;;17.44;46.42
18527;BME280;9393;42.158;24.748;2022-10-20T00:03:45;99802.94;;;17.51;46.52
18527;BME280;9393;42.158;24.748;2022-10-20T00:06:48;99790.47;;;17.45;46.97
18527;BME280;9393;42.158;24.748;2022-10-20T00:09:51;99789.63;;;17.30;47.67
18527;BME280;9393;42.158;24.748;2022-10-20T00:12:54;99786.50;;;17.11;48.34
18527;BME280;9393;42.158;24.748;2022-10-20T00:15:59;99784.41;;;16.84;49.35
18527;BME280;9393;42.158;24.748;2022-10-20T00:19:03;99777.91;;;16.95;49.59
18527;BME280;9393;42.158;24.748;2022-10-20T00:22:06;99782.97;;;16.96;49.83
18527;BME280;9393;42.158;24.748;2022-10-20T00:25:09;99787.97;;;16.91;50.38
18527;BME280;9393;42.158;24.748;2022-10-20T00:28:12;99782.09;;;17.04;50.29
18527;BME280;9393;42.158;24.748;2022-10-20T00:31:18;99784.88;;;16.65;51.60
18527;BME280;9393;42.158;24.748;2022-10-20T00:34:21;99777.44;;;16.91;51.20
18527;BME280;9393;42.158;24.748;2022-10-20T00:37:24;99782.19;;;16.96;51.79
18527;BME280;9393;42.158;24.748;2022-10-20T00:40:27;99782.66;;;16.99;51.85
18527;BME280;9393;42.158;24.748;2022-10-20T00:43:45;99766.94;;;17.06;51.86
18527;BME280;9393;42.158;24.748;2022-10-20T00:46:50;99776.41;;;17.15;52.25
18527;BME280;9393;42.158;24.748;2022-10-20T00:50:05;99765.44;;;17.26;52.33
18527;BME280;9393;42.158;24.748;2022-10-20T00:53:09;99767.81;;;17.36;52.49
18527;BME280;9393;42.158;24.748;2022-10-20T00:56:13;99770.75;;;17.41;52.50
18527;BME280;9393;42.158;24.748;2022-10-20T00:59:19;99771.69;;;17.48;52.52
18527;BME280;9393;42.158;24.748;2022-10-20T01:02:25;99767.91;;;17.42;53.01
18527;BME280;9393;42.158;24.748;2022-10-20T01:05:28;99776.59;;;17.51;52.82
18527;BME280;9393;42.158;24.748;2022-10-20T01:08:31;99775.53;;;17.60;52.85
18527;BME280;9393;42.158;24.748;2022-10-20T01:11:39;99765.06;;;17.66;52.68
18527;BME280;9393;42.158;24.748;2022-10-20T01:14:50;99768.78;;;17.72;52.95
18527;BME280;9393;42.158;24.748;2022-10-20T01:18:03;99774.41;;;17.69;53.53
18527;BME280;9393;42.158;24.748;2022-10-20T01:21:42;99759.72;;;17.75;53.84
18527;BME280;9393;42.158;24.748;2022-10-20T01:25:00;99766.72;;;17.82;53.90
18527;BME280;9393;42.158;24.748;2022-10-20T01:28:13;99773.44;;;17.85;54.28
18527;BME280;9393;42.158;24.748;2022-10-20T01:31:26;99771.34;;;17.80;54.60
18527;BME280;9393;42.158;24.748;2022-10-20T01:34:35;99781.16;;;17.86;54.30
18527;BME280;9393;42.158;24.748;2022-10-20T01:37:45;99792.06;;;17.98;54.14
18527;BME280;9393;42.158;24.748;2022-10-20T01:40:53;99791.72;;;17.86;54.60
18527;BME280;9393;42.158;24.748;2022-10-20T01:44:03;99791.81;;;17.78;54.92
18527;BME280;9393;42.158;24.748;2022-10-20T01:47:08;99781.59;;;17.90;54.71
18527;BME280;9393;42.158;24.748;2022-10-20T01:50:13;99786.19;;;17.81;55.38
18527;BME280;9393;42.158;24.748;2022-10-20T01:53:18;99786.09;;;17.89;55.36
18527;BME280;9393;42.158;24.748;2022-10-20T01:56:26;99791.72;;;17.86;55.54
18527;BME280;9393;42.158;24.748;2022-10-20T01:59:41;99796.97;;;17.86;56.05
18527;BME280;9393;42.158;24.748;2022-10-20T02:03:08;99794.81;;;17.75;56.19
18527;BME280;9393;42.158;24.748;2022-10-20T02:06:20;99792.44;;;17.80;56.18
18527;BME280;9393;42.158;24.748;2022-10-20T02:09:33;99796.16;;;17.56;57.22
18527;BME280;9393;42.158;24.748;2022-10-20T02:12:40;99799.06;;;17.76;56.82
18527;BME280;9393;42.158;24.748;2022-10-20T02:15:49;99799.63;;;17.86;56.42
18527;BME280;9393;42.158;24.748;2022-10-20T02:18:53;99801.81;;;17.68;57.05
18527;BME280;9393;42.158;24.748;2022-10-20T02:21:57;99802.97;;;17.65;57.39
18527;BME280;9393;42.158;24.748;2022-10-20T02:25:00;99806.38;;;17.74;57.55
18527;BME280;9393;42.158;24.748;2022-10-20T02:28:04;99805.81;;;17.64;57.99
18527;BME280;9393;42.158;24.748;2022-10-20T02:31:12;99810.56;;;17.69;57.84
18527;BME280;9393;42.158;24.748;2022-10-20T02:34:15;99811.84;;;17.50;58.81
18527;BME280;9393;42.158;24.748;2022-10-20T02:37:18;99812.28;;;17.61;58.36
18527;BME280;9393;42.158;24.748;2022-10-20T02:40:22;99809.91;;;17.29;59.41
18527;BME280;9393;42.158;24.748;2022-10-20T02:43:25;99817.28;;;17.48;59.03
18527;BME280;9393;42.158;24.748;2022-10-20T02:46:30;99819.63;;;17.29;59.37
18527;BME280;9393;42.158;24.748;2022-10-20T02:49:33;99834.19;;;17.39;59.13
18527;BME280;9393;42.158;24.748;2022-10-20T02:52:36;99829.63;;;17.33;59.26
18527;BME280;9393;42.158;24.748;2022-10-20T02:55:40;99827.47;;;17.14;60.33
18527;BME280;9393;42.158;24.748;2022-10-20T02:58:44;99836.28;;;17.06;60.46
18527;BME280;9393;42.158;24.748;2022-10-20T03:01:48;99840.03;;;17.12;60.45
18527;BME280;9393;42.158;24.748;2022-10-20T03:04:53;99845.72;;;17.24;60.46
18527;BME280;9393;42.158;24.748;2022-10-20T03:07:56;99852.91;;;17.30;60.39
18527;BME280;9393;42.158;24.748;2022-10-20T03:10:59;99864.31;;;17.22;60.72
18527;BME280;9393;42.158;24.748;2022-10-20T03:14:02;99853.06;;;17.28;60.39
18527;BME280;9393;42.158;24.748;2022-10-20T03:17:07;99863.25;;;17.31;60.31
18527;BME280;9393;42.158;24.748;2022-10-20T03:20:10;99858.44;;;17.35;60.14
18527;BME280;9393;42.158;24.748;2022-10-20T03:23:13;99854.47;;;17.39;60.18
18527;BME280;9393;42.158;24.748;2022-10-20T03:26:20;99864.53;;;17.35;60.24
18527;BME280;9393;42.158;24.748;2022-10-20T03:29:23;99866.34;;;17.35;60.38
18527;BME280;9393;42.158;24.748;2022-10-20T03:32:28;99876.91;;;17.35;60.53
18527;BME280;9393;42.158;24.748;2022-10-20T03:35:31;99871.25;;;17.23;61.21
18527;BME280;9393;42.158;24.748;2022-10-20T03:38:34;99882.84;;;17.37;60.74
18527;BME280;9393;42.158;24.748;2022-10-20T03:41:37;99887.22;;;17.22;61.13
18527;BME280;9393;42.158;24.748;2022-10-20T03:44:41;99894.88;;;17.31;61.11
18527;BME280;9393;42.158;24.748;2022-10-20T03:47:47;99891.78;;;17.28;61.15
18527;BME280;9393;42.158;24.748;2022-10-20T03:50:50;99888.34;;;17.27;61.10
18527;BME280;9393;42.158;24.748;2022-10-20T03:53:53;99899.44;;;17.14;61.64
18527;BME280;9393;42.158;24.748;2022-10-20T03:56:56;99893.44;;;17.29;61.17
18527;BME280;9393;42.158;24.748;2022-10-20T03:59:59;99895.16;;;17.13;61.47
18527;BME280;9393;42.158;24.748;2022-10-20T04:03:13;99907.56;;;17.13;61.46
18527;BME280;9393;42.158;24.748;2022-10-20T04:06:16;99907.31;;;17.23;60.96
18527;BME280;9393;42.158;24.748;2022-10-20T04:09:20;99905.44;;;17.08;61.30
18527;BME280;9393;42.158;24.748;2022-10-20T04:12:23;99900.56;;;16.97;61.49
18527;BME280;9393;42.158;24.748;2022-10-20T04:15:27;99896.63;;;16.93;61.47
18527;BME280;9393;42.158;24.748;2022-10-20T04:18:31;99900.34;;;16.76;62.04
18527;BME280;9393;42.158;24.748;2022-10-20T04:21:34;99908.91;;;16.78;61.89
18527;BME280;9393;42.158;24.748;2022-10-20T04:24:37;99910.75;;;17.00;61.14
18527;BME280;9393;42.158;24.748;2022-10-20T04:27:41;99917.66;;;17.01;61.01
18527;BME280;9393;42.158;24.748;2022-10-20T04:30:45;99910.75;;;17.00;60.77
18527;BME280;9393;42.158;24.748;2022-10-20T04:33:49;99912.69;;;16.76;61.48
18527;BME280;9393;42.158;24.748;2022-10-20T04:36:52;99918.44;;;17.10;60.07
18527;BME280;9393;42.158;24.748;2022-10-20T04:39:55;99921.00;;;16.95;60.52
18527;BME280;9393;42.158;24.748;2022-10-20T04:42:59;99931.16;;;17.06;59.79
18527;BME280;9393;42.158;24.748;2022-10-20T04:46:04;99928.41;;;16.92;60.20
18527;BME280;9393;42.158;24.748;2022-10-20T04:49:11;99939.59;;;16.94;60.07
18527;BME280;9393;42.158;24.748;2022-10-20T04:52:14;99929.25;;;16.92;59.84
18527;BME280;9393;42.158;24.748;2022-10-20T04:55:18;99936.44;;;16.98;59.57
18527;BME280;9393;42.158;24.748;2022-10-20T04:58:21;99945.09;;;16.84;59.77
18527;BME280;9393;42.158;24.748;2022-10-20T05:01:26;99951.28;;;16.99;59.43
18527;BME280;9393;42.158;24.748;2022-10-20T05:04:31;99955.28;;;16.87;59.55
18527;BME280;9393;42.158;24.748;2022-10-20T05:07:34;99963.69;;;17.13;58.74
18527;BME280;9393;42.158;24.748;2022-10-20T05:10:38;99955.84;;;17.05;58.66
18527;BME280;9393;42.158;24.748;2022-10-20T05:13:41;99966.38;;;17.05;58.71
18527;BME280;9393;42.158;24.748;2022-10-20T05:16:45;99965.81;;;17.18;58.19
18527;BME280;9393;42.158;24.748;2022-10-20T05:19:49;99979.13;;;17.25;57.99
18527;BME280;9393;42.158;24.748;2022-10-20T05:22:52;99979.38;;;17.07;58.63
18527;BME280;9393;42.158;24.748;2022-10-20T05:25:55;99990.53;;;17.17;58.44
18527;BME280;9393;42.158;24.748;2022-10-20T05:28:59;99993.69;;;17.12;58.47
18527;BME280;9393;42.158;24.748;2022-10-20T05:32:03;100008.50;;;17.13;58.28
18527;BME280;9393;42.158;24.748;2022-10-20T05:35:08;100007.97;;;17.18;58.29
18527;BME280;9393;42.158;24.748;2022-10-20T05:38:11;100014.81;;;17.04;58.70
18527;BME280;9393;42.158;24.748;2022-10-20T05:41:15;100014.69;;;17.29;57.87
18527;BME280;9393;42.158;24.748;2022-10-20T05:44:19;100018.50;;;17.49;57.25
18527;BME280;9393;42.158;24.748;2022-10-20T05:47:22;100017.81;;;17.63;56.83
18527;BME280;9393;42.158;24.748;2022-10-20T05:50:28;100025.44;;;17.81;56.11
18527;BME280;9393;42.158;24.748;2022-10-20T05:53:31;100029.13;;;17.94;55.69
18527;BME280;9393;42.158;24.748;2022-10-20T05:56:34;100029.63;;;18.12;55.14
18527;BME280;9393;42.158;24.748;2022-10-20T05:59:37;100049.63;;;18.44;54.50
18527;BME280;9393;42.158;24.748;2022-10-20T06:02:40;100046.97;;;18.30;54.56
18527;BME280;9393;42.158;24.748;2022-10-20T06:05:45;100053.59;;;18.63;53.38
18527;BME280;9393;42.158;24.748;2022-10-20T06:08:51;100066.19;;;18.61;53.72
18527;BME280;9393;42.158;24.748;2022-10-20T06:11:54;100074.03;;;18.84;53.25
18527;BME280;9393;42.158;24.748;2022-10-20T06:14:58;100078.72;;;19.32;52.09
18527;BME280;9393;42.158;24.748;2022-10-20T06:18:01;100072.91;;;19.22;52.30
18527;BME280;9393;42.158;24.748;2022-10-20T06:21:09;100083.41;;;19.15;52.15
18527;BME280;9393;42.158;24.748;2022-10-20T06:24:13;100086.03;;;19.45;51.30
18527;BME280;9393;42.158;24.748;2022-10-20T06:27:17;100087.69;;;19.46;51.16
18527;BME280;9393;42.158;24.748;2022-10-20T06:30:20;100090.06;;;19.41;51.31
18527;BME280;9393;42.158;24.748;2022-10-20T06:33:28;100092.94;;;19.60;50.84
18527;BME280;9393;42.158;24.748;2022-10-20T06:36:35;100103.81;;;19.87;49.71
18527;BME280;9393;42.158;24.748;2022-10-20T06:39:38;100104.53;;;19.95;49.68
18527;BME280;9393;42.158;24.748;2022-10-20T06:42:41;100108.06;;;20.24;49.06
18527;BME280;9393;42.158;24.748;2022-10-20T06:45:52;100116.53;;;20.34;48.54
18527;BME280;9393;42.158;24.748;2022-10-20T06:48:58;100121.41;;;20.58;47.69
18527;BME280;9393;42.158;24.748;2022-10-20T06:52:03;100121.47;;;20.64;47.18
18527;BME280;9393;42.158;24.748;2022-10-20T06:55:07;100112.38;;;20.80;47.07
18527;BME280;9393;42.158;24.748;2022-10-20T06:58:10;100121.69;;;20.97;46.62
18527;BME280;9393;42.158;24.748;2022-10-20T07:01:15;100115.22;;;21.41;45.46
18527;BME280;9393;42.158;24.748;2022-10-20T07:04:18;100124.53;;;21.71;44.32
18527;BME280;9393;42.158;24.748;2022-10-20T07:07:23;100125.56;;;21.77;44.23
18527;BME280;9393;42.158;24.748;2022-10-20T07:10:26;100119.19;;;21.64;44.54
18527;BME280;9393;42.158;24.748;2022-10-20T07:13:30;100125.38;;;21.85;44.08
18527;BME280;9393;42.158;24.748;2022-10-20T07:16:34;100118.22;;;21.79;44.02
18527;BME280;9393;42.158;24.748;2022-10-20T07:19:39;100117.28;;;21.52;44.17
18527;BME280;9393;42.158;24.748;2022-10-20T07:22:43;100128.22;;;21.83;43.75
18527;BME280;9393;42.158;24.748;2022-10-20T07:25:47;100126.75;;;21.67;43.99
18527;BME280;9393;42.158;24.748;2022-10-20T07:28:54;100126.03;;;21.93;43.39
18527;BME280;9393;42.158;24.748;2022-10-20T07:31:58;100118.47;;;21.97;43.04
18527;BME280;9393;42.158;24.748;2022-10-20T07:35:03;100114.00;;;22.10;42.65
18527;BME280;9393;42.158;24.748;2022-10-20T07:38:08;100128.34;;;22.55;41.96
18527;BME280;9393;42.158;24.748;2022-10-20T07:41:11;100130.84;;;22.70;41.64
18527;BME280;9393;42.158;24.748;2022-10-20T07:44:14;100128.63;;;21.80;42.84
18527;BME280;9393;42.158;24.748;2022-10-20T07:47:18;100124.25;;;22.27;42.10
18527;BME280;9393;42.158;24.748;2022-10-20T07:50:25;100117.31;;;22.39;41.82
18527;BME280;9393;42.158;24.748;2022-10-20T07:53:30;100122.91;;;21.77;42.81
18527;BME280;9393;42.158;24.748;2022-10-20T07:56:35;100124.25;;;22.66;41.53
18527;BME280;9393;42.158;24.748;2022-10-20T07:59:38;100123.03;;;22.23;41.89
18527;BME280;9393;42.158;24.748;2022-10-20T08:02:41;100120.16;;;22.24;41.08
18527;BME280;9393;42.158;24.748;2022-10-20T08:05:46;100136.72;;;22.65;40.16
18527;BME280;9393;42.158;24.748;2022-10-20T08:08:51;100131.66;;;22.77;40.05
18527;BME280;9393;42.158;24.748;2022-10-20T08:11:54;100133.44;;;22.96;39.63
18527;BME280;9393;42.158;24.748;2022-10-20T08:14:57;100133.28;;;22.85;39.75
18527;BME280;9393;42.158;24.748;2022-10-20T08:18:13;100126.63;;;23.33;38.98
18527;BME280;9393;42.158;24.748;2022-10-20T08:21:23;100125.50;;;22.83;39.16
18527;BME280;9393;42.158;24.748;2022-10-20T08:24:29;100125.44;;;23.23;38.76
18527;BME280;9393;42.158;24.748;2022-10-20T08:27:32;100125.63;;;23.21;38.48
18527;BME280;9393;42.158;24.748;2022-10-20T08:30:35;100114.38;;;23.19;38.33
18527;BME280;9393;42.158;24.748;2022-10-20T08:33:39;100110.41;;;23.48;37.65
18527;BME280;9393;42.158;24.748;2022-10-20T08:36:42;100114.25;;;23.65;37.40
18527;BME280;9393;42.158;24.748;2022-10-20T08:39:47;100123.88;;;23.97;36.44
18527;BME280;9393;42.158;24.748;2022-10-20T08:42:50;100121.25;;;24.53;35.48
18527;BME280;9393;42.158;24.748;2022-10-20T08:45:54;100116.94;;;24.28;35.43
18527;BME280;9393;42.158;24.748;2022-10-20T08:48:58;100117.69;;;24.59;35.45
18527;BME280;9393;42.158;24.748;2022-10-20T08:52:01;100111.84;;;24.26;35.59
18527;BME280;9393;42.158;24.748;2022-10-20T08:55:12;100110.44;;;24.17;35.38
18527;BME280;9393;42.158;24.748;2022-10-20T08:58:25;100118.19;;;23.87;35.58
18527;BME280;9393;42.158;24.748;2022-10-20T09:01:32;100114.06;;;24.54;34.59
18527;BME280;9393;42.158;24.748;2022-10-20T09:04:41;100121.50;;;23.83;35.02
18527;BME280;9393;42.158;24.748;2022-10-20T09:07:46;100111.22;;;24.24;34.17
18527;BME280;9393;42.158;24.748;2022-10-20T09:10:53;100118.31;;;24.05;34.67
18527;BME280;9393;42.158;24.748;2022-10-20T09:13:57;100109.25;;;23.75;35.11
18527;BME280;9393;42.158;24.748;2022-10-20T09:17:00;100119.38;;;23.98;34.51
18527;BME280;9393;42.158;24.748;2022-10-20T09:20:05;100120.22;;;24.30;34.44
18527;BME280;9393;42.158;24.748;2022-10-20T09:23:15;100112.94;;;24.43;34.07
18527;BME280;9393;42.158;24.748;2022-10-20T09:26:43;100118.25;;;24.68;33.45
18527;BME280;9393;42.158;24.748;2022-10-20T09:30:12;100113.41;;;24.83;32.92
18527;BME280;9393;42.158;24.748;2022-10-20T09:33:22;100109.81;;;24.96;33.46
18527;BME280;9393;42.158;24.748;2022-10-20T09:36:29;100106.53;;;25.12;33.37
18527;BME280;9393;42.158;24.748;2022-10-20T09:39:38;100103.09;;;25.41;32.74
18527;BME280;9393;42.158;24.748;2022-10-20T09:42:48;100117.81;;;25.32;32.51
18527;BME280;9393;42.158;24.748;2022-10-20T09:45:54;100104.66;;;25.67;32.08
18527;BME280;9393;42.158;24.748;2022-10-20T09:48:58;100107.97;;;25.51;31.83
18527;BME280;9393;42.158;24.748;2022-10-20T09:52:12;100100.59;;;25.10;31.98
18527;BME280;9393;42.158;24.748;2022-10-20T09:55:24;100099.88;;;25.57;31.88
18527;BME280;9393;42.158;24.748;2022-10-20T09:58:31;100104.53;;;26.03;31.78
18527;BME280;9393;42.158;24.748;2022-10-20T10:01:51;100104.66;;;25.67;32.20
18527;BME280;9393;42.158;24.748;2022-10-20T10:05:12;100101.56;;;26.11;31.29
18527;BME280;9393;42.158;24.748;2022-10-20T10:08:17;100099.53;;;26.37;31.02
18527;BME280;9393;42.158;24.748;2022-10-20T10:11:30;100101.06;;;26.79;30.25
18527;BME280;9393;42.158;24.748;2022-10-20T10:14:36;100104.09;;;26.83;30.14
18527;BME280;9393;42.158;24.748;2022-10-20T10:17:41;100095.47;;;26.46;30.52
18527;BME280;9393;42.158;24.748;2022-10-20T10:20:45;100094.44;;;26.93;29.52
18527;BME280;9393;42.158;24.748;2022-10-20T10:23:50;100089.75;;;27.24;29.64
18527;BME280;9393;42.158;24.748;2022-10-20T10:26:54;100085.50;;;26.88;30.08
18527;BME280;9393;42.158;24.748;2022-10-20T10:30:18;100079.09;;;26.54;30.24
18527;BME280;9393;42.158;24.748;2022-10-20T10:33:28;100075.16;;;26.03;30.74
18527;BME280;9393;42.158;24.748;2022-10-20T10:36:35;100076.97;;;26.33;30.22
18527;BME280;9393;42.158;24.748;2022-10-20T10:39:39;100070.81;;;26.32;29.82
18527;BME280;9393;42.158;24.748;2022-10-20T10:43:05;100071.41;;;26.69;29.78
18527;BME280;9393;42.158;24.748;2022-10-20T10:46:18;100068.63;;;26.64;29.88
18527;BME280;9393;42.158;24.748;2022-10-20T10:49:37;100065.47;;;26.44;30.24
18527;BME280;9393;42.158;24.748;2022-10-20T10:52:51;100057.66;;;26.31;30.22
18527;BME280;9393;42.158;24.748;2022-10-20T10:56:05;100052.47;;;25.35;31.04
18527;BME280;9393;42.158;24.748;2022-10-20T10:59:11;100051.69;;;25.64;30.77
18527;BME280;9393;42.158;24.748;2022-10-20T11:06:17;100048.63;;;25.79;30.38
18527;BME280;9393;42.158;24.748;2022-10-20T11:09:27;100046.66;;;25.97;30.10
18527;BME280;9393;42.158;24.748;2022-10-20T11:12:45;100036.50;;;26.18;30.07
18527;BME280;9393;42.158;24.748;2022-10-20T11:16:00;100039.94;;;26.06;30.20
18527;BME280;9393;42.158;24.748;2022-10-20T11:19:30;100038.13;;;26.19;29.52
18527;BME280;9393;42.158;24.748;2022-10-20T11:22:42;100033.38;;;26.44;29.37
18527;BME280;9393;42.158;24.748;2022-10-20T11:25:51;100021.50;;;26.51;29.50
18527;BME280;9393;42.158;24.748;2022-10-20T11:28:57;100027.31;;;26.72;29.09
18527;BME280;9393;42.158;24.748;2022-10-20T11:32:08;100028.00;;;26.79;29.13
18527;BME280;9393;42.158;24.748;2022-10-20T11:35:22;100033.13;;;26.80;28.81
18527;BME280;9393;42.158;24.748;2022-10-20T11:38:34;100030.91;;;26.66;28.99
18527;BME280;9393;42.158;24.748;2022-10-20T11:41:45;100032.31;;;26.22;29.31
18527;BME280;9393;42.158;24.748;2022-10-20T11:44:50;100029.81;;;25.97;29.13
18527;BME280;9393;42.158;24.748;2022-10-20T11:47:59;100029.03;;;26.08;28.70
18527;BME280;9393;42.158;24.748;2022-10-20T11:51:23;100025.00;;;25.76;28.99
18527;BME280;9393;42.158;24.748;2022-10-20T11:54:40;100013.28;;;25.77;28.98
18527;BME280;9393;42.158;24.748;2022-10-20T11:57:55;100018.63;;;25.47;29.43
18527;BME280;9393;42.158;24.748;2022-10-20T12:01:39;100017.03;;;25.87;28.61
18527;BME280;9393;42.158;24.748;2022-10-20T12:05:09;100012.22;;;25.48;29.08
18527;BME280;9393;42.158;24.748;2022-10-20T12:08:29;100008.63;;;25.42;28.98
18527;BME280;9393;42.158;24.748;2022-10-20T12:11:45;100016.34;;;25.50;28.82
18527;BME280;9393;42.158;24.748;2022-10-20T12:14:56;100009.22;;;25.44;28.76
18527;BME280;9393;42.158;24.748;2022-10-20T12:18:02;100014.03;;;24.88;29.38
18527;BME280;9393;42.158;24.748;2022-10-20T12:21:09;99997.88;;;25.01;28.66
18527;BME280;9393;42.158;24.748;2022-10-20T12:24:35;99993.31;;;25.20;28.88
18527;BME280;9393;42.158;24.748;2022-10-20T12:27:38;99992.69;;;25.36;29.07
18527;BME280;9393;42.158;24.748;2022-10-20T12:30:43;99990.50;;;25.14;28.89
18527;BME280;9393;42.158;24.748;2022-10-20T12:33:59;99991.66;;;25.37;28.93
18527;BME280;9393;42.158;24.748;2022-10-20T12:37:12;99988.84;;;25.32;29.05
18527;BME280;9393;42.158;24.748;2022-10-20T12:40:24;99989.28;;;25.58;28.69
18527;BME280;9393;42.158;24.748;2022-10-20T12:43:35;99991.84;;;25.53;28.69
18527;BME280;9393;42.158;24.748;2022-10-20T12:46:41;99992.94;;;24.43;30.36
18527;BME280;9393;42.158;24.748;2022-10-20T12:49:54;99986.78;;;24.79;29.67
18527;BME280;9393;42.158;24.748;2022-10-20T12:53:11;99987.69;;;24.55;30.16
18527;BME280;9393;42.158;24.748;2022-10-20T12:56:18;99983.03;;;25.05;29.53
18527;BME280;9393;42.158;24.748;2022-10-20T12:59:38;100000.13;;;24.79;29.85
18527;BME280;9393;42.158;24.748;2022-10-20T13:02:48;99988.84;;;24.84;30.22
18527;BME280;9393;42.158;24.748;2022-10-20T13:05:52;99987.66;;;24.98;29.55
18527;BME280;9393;42.158;24.748;2022-10-20T13:09:19;99983.22;;;25.22;29.57
18527;BME280;9393;42.158;24.748;2022-10-20T13:12:26;99987.00;;;25.32;29.27
18527;BME280;9393;42.158;24.748;2022-10-20T13:15:33;99990.47;;;25.51;29.24
18527;BME280;9393;42.158;24.748;2022-10-20T13:18:43;99987.34;;;25.54;29.04
18527;BME280;9393;42.158;24.748;2022-10-20T13:21:48;99987.91;;;25.38;29.12
18527;BME280;9393;42.158;24.748;2022-10-20T13:24:52;99999.06;;;25.53;29.56
18527;BME280;9393;42.158;24.748;2022-10-20T13:28:05;99997.69;;;25.14;30.11
18527;BME280;9393;42.158;24.748;2022-10-20T13:31:15;99994.34;;;25.48;29.15
18527;BME280;9393;42.158;24.748;2022-10-20T13:34:27;99997.25;;;25.65;29.33
18527;BME280;9393;42.158;24.748;2022-10-20T13:37:44;99997.38;;;25.93;28.77
18527;BME280;9393;42.158;24.748;2022-10-20T13:40:57;99990.88;;;25.89;28.21
18527;BME280;9393;42.158;24.748;2022-10-20T13:44:09;99997.81;;;25.67;28.51
18527;BME280;9393;42.158;24.748;2022-10-20T13:47:31;99994.72;;;25.22;28.38
18527;BME280;9393;42.158;24.748;2022-10-20T13:50:39;100003.69;;;25.28;28.49
18527;BME280;9393;42.158;24.748;2022-10-20T13:53:46;100003.91;;;25.26;28.97
18527;BME280;9393;42.158;24.748;2022-10-20T13:56:51;100007.31;;;25.33;29.03
18527;BME280;9393;42.158;24.748;2022-10-20T13:59:57;100005.84;;;25.49;28.81
18527;BME280;9393;42.158;24.748;2022-10-20T14:03:03;100002.78;;;25.34;28.62
18527;BME280;9393;42.158;24.748;2022-10-20T14:06:32;99993.91;;;25.22;28.97
18527;BME280;9393;42.158;24.748;2022-10-20T14:09:36;100001.88;;;24.92;29.45
18527;BME280;9393;42.158;24.748;2022-10-20T14:12:44;100003.19;;;25.01;29.18
18527;BME280;9393;42.158;24.748;2022-10-20T14:15:52;100005.69;;;24.59;29.97
18527;BME280;9393;42.158;24.748;2022-10-20T14:18:59;99997.41;;;24.68;30.06
18527;BME280;9393;42.158;24.748;2022-10-20T14:22:11;100003.00;;;24.84;29.73
18527;BME280;9393;42.158;24.748;2022-10-20T14:25:15;100006.69;;;24.83;30.13
18527;BME280;9393;42.158;24.748;2022-10-20T14:28:20;100008.47;;;24.71;29.85
18527;BME280;9393;42.158;24.748;2022-10-20T14:31:25;100007.53;;;24.59;30.35
18527;BME280;9393;42.158;24.748;2022-10-20T14:34:33;100001.84;;;24.55;30.48
18527;BME280;9393;42.158;24.748;2022-10-20T14:37:38;100005.13;;;24.57;30.37
18527;BME280;9393;42.158;24.748;2022-10-20T14:40:48;100008.72;;;24.45;30.17
18527;BME280;9393;42.158;24.748;2022-10-20T14:43:54;100004.91;;;24.16;30.70
18527;BME280;9393;42.158;24.748;2022-10-20T14:47:11;99999.34;;;23.86;30.88
18527;BME280;9393;42.158;24.748;2022-10-20T14:50:21;100008.84;;;23.76;31.05
18527;BME280;9393;42.158;24.748;2022-10-20T14:53:29;100008.50;;;23.65;30.96
18527;BME280;9393;42.158;24.748;2022-10-20T14:56:33;100002.03;;;23.55;31.75
18527;BME280;9393;42.158;24.748;2022-10-20T14:59:49;100006.19;;;23.51;31.54
18527;BME280;9393;42.158;24.748;2022-10-20T15:02:57;99998.44;;;23.43;31.87
18527;BME280;9393;42.158;24.748;2022-10-20T15:06:03;100015.63;;;23.40;32.06
18527;BME280;9393;42.158;24.748;2022-10-20T15:09:15;100017.53;;;23.27;32.19
18527;BME280;9393;42.158;24.748;2022-10-20T15:12:31;100013.03;;;23.21;32.06
18527;BME280;9393;42.158;24.748;2022-10-20T15:15:36;100015.34;;;23.10;32.39
18527;BME280;9393;42.158;24.748;2022-10-20T15:18:41;100022.13;;;23.06;32.63
18527;BME280;9393;42.158;24.748;2022-10-20T15:21:45;100019.69;;;22.98;32.66
18527;BME280;9393;42.158;24.748;2022-10-20T15:24:48;100035.28;;;22.88;32.88
18527;BME280;9393;42.158;24.748;2022-10-20T15:27:52;100034.72;;;22.47;33.10
18527;BME280;9393;42.158;24.748;2022-10-20T15:30:58;100029.97;;;22.62;33.19
18527;BME280;9393;42.158;24.748;2022-10-20T15:34:03;100031.25;;;22.46;33.62
18527;BME280;9393;42.158;24.748;2022-10-20T15:37:07;100033.50;;;22.43;33.98
18527;BME280;9393;42.158;24.748;2022-10-20T15:40:11;100041.66;;;22.35;34.13
18527;BME280;9393;42.158;24.748;2022-10-20T15:43:16;100046.59;;;22.18;34.59
18527;BME280;9393;42.158;24.748;2022-10-20T15:46:20;100058.03;;;22.19;34.91
18527;BME280;9393;42.158;24.748;2022-10-20T15:49:25;100054.31;;;21.93;35.59
18527;BME280;9393;42.158;24.748;2022-10-20T15:52:28;100063.25;;;21.79;35.97
18527;BME280;9393;42.158;24.748;2022-10-20T15:55:32;100062.25;;;21.80;36.05
18527;BME280;9393;42.158;24.748;2022-10-20T15:58:36;100067.53;;;21.67;36.15
18527;BME280;9393;42.158;24.748;2022-10-20T16:01:41;100071.00;;;21.67;36.22
18527;BME280;9393;42.158;24.748;2022-10-20T16:04:45;100083.16;;;21.36;36.98
18527;BME280;9393;42.158;24.748;2022-10-20T16:07:49;100078.88;;;21.41;37.02
18527;BME280;9393;42.158;24.748;2022-10-20T16:10:53;100075.28;;;21.14;37.32
18527;BME280;9393;42.158;24.748;2022-10-20T16:13:57;100090.94;;;21.03;37.42
18527;BME280;9393;42.158;24.748;2022-10-20T16:17:01;100089.03;;;20.97;37.56
18527;BME280;9393;42.158;24.748;2022-10-20T16:20:06;100098.34;;;20.86;37.82
18527;BME280;9393;42.158;24.748;2022-10-20T16:23:10;100104.78;;;20.71;38.09
18527;BME280;9393;42.158;24.748;2022-10-20T16:26:13;100109.53;;;20.75;38.26
18527;BME280;9393;42.158;24.748;2022-10-20T16:29:16;100113.75;;;20.70;38.20